FMSD

Tôlanaro Airport

Tôlanaro, Comoros
METAR FMSD 222100Z 00000KT 9999 SCT016 SCT033 23/20 Q1012
Observed Flight Rules
Apr-22 @ 21:00 UTC (45 minutes ago) Visual Flight Rules
Visibility Clouds
10,000+ meters
  • Scattered at 1,600' AGL
  • Scattered at 3,300' AGL
Temperatures Readings
Current 23°C / 73°F
Dewpoint 20°C / 68°F
Humidity 83%
Altimeter 29.88" Hg
Pressure 1012 hPa
Elevation 9
METAR FMSD 222100Z 00000KT 9999 SCT016 SCT033 23/20 Q1012
Observed Flight Rules
Apr-22 @ 21:00 UTC
(45 minutes ago)
VFR
Clouds
  • Scattered at 1,600' AGL
  • Scattered at 3,300' AGL
Temperature Dewpoint
23°C / 73°F 20°C / 68°F
Humidity Altimeter Pressure
83% 29.88" Hg 1012 hPa